createdAt,value
2018-09-12T00:00:25.353Z,17.40
2018-09-12T00:02:52.338Z,17.30
2018-09-12T00:05:19.317Z,17.20
2018-09-12T00:07:46.297Z,17.20
2018-09-12T00:10:13.297Z,17.20
2018-09-12T00:12:40.302Z,17.20
2018-09-12T00:15:07.280Z,17.20
2018-09-12T00:17:34.265Z,17.10
2018-09-12T00:20:01.758Z,17.10
2018-09-12T00:22:28.730Z,17.00
2018-09-12T00:24:55.727Z,17.00
2018-09-12T00:27:22.699Z,16.90
2018-09-12T00:29:49.687Z,17.00
2018-09-12T00:32:16.683Z,17.00
2018-09-12T00:34:43.653Z,17.00
2018-09-12T00:37:10.638Z,17.10
2018-09-12T00:39:37.610Z,17.00
2018-09-12T00:42:04.627Z,17.00
2018-09-12T00:44:31.587Z,17.20
2018-09-12T00:46:58.623Z,16.90
2018-09-12T00:49:25.628Z,17.00
2018-09-12T00:51:52.583Z,17.00
2018-09-12T00:54:19.621Z,17.10
2018-09-12T00:56:46.590Z,17.30
2018-09-12T00:59:13.662Z,17.30
2018-09-12T01:01:40.680Z,17.30
2018-09-12T01:04:07.671Z,17.30
2018-09-12T01:06:34.666Z,17.40
2018-09-12T01:09:01.813Z,17.30
2018-09-12T01:11:28.781Z,17.30
2018-09-12T01:13:56.101Z,17.20
2018-09-12T01:16:23.143Z,17.10
2018-09-12T01:18:50.220Z,17.00
2018-09-12T01:21:17.376Z,17.00
2018-09-12T01:23:44.379Z,16.80
2018-09-12T01:26:11.399Z,16.80
2018-09-12T01:28:38.380Z,16.80
2018-09-12T01:31:05.414Z,16.70
2018-09-12T01:33:32.419Z,16.80
2018-09-12T01:35:59.398Z,16.80
2018-09-12T01:38:26.394Z,16.70
2018-09-12T01:40:53.384Z,16.50
2018-09-12T01:43:20.338Z,16.60
2018-09-12T01:45:47.294Z,16.50
2018-09-12T01:48:14.336Z,16.50
2018-09-12T01:50:41.306Z,16.50
2018-09-12T01:53:08.299Z,16.50
2018-09-12T01:55:35.254Z,16.60
2018-09-12T02:00:42.671Z,16.60
2018-09-12T02:03:10.073Z,16.60
2018-09-12T02:05:37.563Z,16.80
2018-09-12T02:08:08.255Z,16.60
2018-09-12T02:10:35.247Z,16.60
2018-09-12T02:13:02.207Z,16.50
2018-09-12T02:15:29.661Z,16.40
2018-09-12T02:17:56.626Z,16.30
2018-09-12T02:20:23.597Z,16.30
2018-09-12T02:22:51.004Z,16.20
2018-09-12T02:25:17.971Z,16.00
2018-09-12T02:27:44.941Z,15.90
2018-09-12T02:30:11.926Z,15.70
2018-09-12T02:32:38.903Z,15.80
2018-09-12T02:35:05.927Z,15.80
2018-09-12T02:37:32.920Z,15.90
2018-09-12T02:39:59.887Z,15.80
2018-09-12T02:42:26.853Z,15.90
2018-09-12T02:44:53.824Z,15.90
2018-09-12T02:47:26.447Z,15.90
2018-09-12T02:49:53.424Z,15.80
2018-09-12T02:52:20.408Z,15.80
2018-09-12T02:54:47.376Z,15.70
2018-09-12T02:57:14.711Z,15.70
2018-09-12T02:59:41.808Z,15.70
2018-09-12T03:02:09.328Z,15.70
2018-09-12T03:04:36.471Z,15.70
2018-09-12T03:07:03.460Z,15.60
2018-09-12T03:09:30.467Z,15.60
2018-09-12T03:11:57.435Z,15.60
2018-09-12T03:14:24.429Z,15.60
2018-09-12T03:16:51.382Z,15.60
2018-09-12T03:19:18.343Z,15.70
2018-09-12T03:21:45.324Z,15.50
2018-09-12T03:24:12.531Z,15.60
2018-09-12T03:26:39.508Z,15.60
2018-09-12T03:29:06.498Z,15.60
2018-09-12T03:31:33.486Z,15.50
2018-09-12T03:34:00.463Z,15.60
2018-09-12T03:36:27.473Z,15.60
2018-09-12T03:38:54.420Z,15.60
2018-09-12T03:41:21.595Z,15.60
2018-09-12T03:43:48.583Z,15.50
2018-09-12T03:46:15.538Z,15.50
2018-09-12T03:48:42.506Z,15.60
2018-09-12T03:51:09.490Z,15.40
2018-09-12T03:53:36.484Z,15.50
2018-09-12T03:56:03.452Z,15.30
2018-09-12T03:58:30.460Z,15.50
2018-09-12T04:00:57.439Z,15.40
2018-09-12T04:03:24.411Z,15.40
2018-09-12T04:05:51.398Z,15.30
2018-09-12T04:08:18.352Z,15.30
2018-09-12T04:10:45.319Z,15.40
2018-09-12T04:13:12.339Z,15.20
2018-09-12T04:15:39.321Z,15.20
2018-09-12T04:18:06.304Z,15.20
2018-09-12T04:20:33.340Z,15.00
2018-09-12T04:23:00.303Z,15.10
2018-09-12T04:25:27.526Z,15.10
2018-09-12T04:27:54.514Z,15.10
2018-09-12T04:30:21.486Z,15.00
2018-09-12T04:32:48.440Z,14.90
2018-09-12T04:35:15.435Z,14.80
2018-09-12T04:37:42.406Z,14.80
2018-09-12T04:40:09.384Z,14.80
2018-09-12T04:42:36.405Z,14.90
2018-09-12T04:45:03.310Z,15.00
2018-09-12T04:47:30.262Z,14.90
2018-09-12T04:49:57.231Z,14.80
2018-09-12T04:52:24.186Z,14.80
2018-09-12T04:54:51.170Z,14.70
2018-09-12T04:57:18.160Z,14.70
2018-09-12T04:59:45.220Z,14.60
2018-09-12T05:02:12.110Z,14.60
2018-09-12T05:04:39.084Z,14.50
2018-09-12T05:07:06.098Z,14.50
2018-09-12T05:09:33.064Z,14.40
2018-09-12T05:12:00.030Z,14.50
2018-09-12T05:14:26.987Z,14.50
2018-09-12T05:16:53.970Z,14.50
2018-09-12T05:19:20.958Z,14.50
2018-09-12T05:21:47.924Z,14.60
2018-09-12T05:24:14.884Z,14.40
2018-09-12T05:26:42.462Z,14.60
2018-09-12T05:29:09.448Z,14.70
2018-09-12T05:31:36.396Z,14.90
2018-09-12T05:34:03.393Z,15.10
2018-09-12T05:36:30.453Z,15.00
2018-09-12T05:38:57.868Z,15.20
2018-09-12T05:41:24.854Z,15.20
2018-09-12T05:43:51.809Z,15.10
2018-09-12T05:46:18.816Z,15.10
2018-09-12T05:48:45.799Z,15.00
2018-09-12T05:51:12.762Z,15.00
2018-09-12T05:53:39.731Z,15.00
2018-09-12T05:56:06.746Z,15.10
2018-09-12T05:58:33.718Z,15.10
2018-09-12T06:01:00.689Z,15.10
2018-09-12T06:03:27.676Z,14.10
2018-09-12T06:05:54.649Z,15.20
2018-09-12T06:08:21.628Z,15.30
2018-09-12T06:10:48.641Z,15.30
2018-09-12T06:13:15.585Z,15.50
2018-09-12T06:15:42.557Z,15.60
2018-09-12T06:18:09.550Z,15.80
2018-09-12T06:20:36.626Z,16.00
2018-09-12T06:23:03.626Z,16.10
2018-09-12T06:25:30.613Z,16.30
2018-09-12T06:27:58.107Z,16.50
2018-09-12T06:30:25.078Z,16.60
2018-09-12T06:32:52.070Z,16.80
2018-09-12T06:35:19.038Z,17.10
2018-09-12T06:37:46.051Z,17.30
2018-09-12T06:40:13.007Z,17.50
2018-09-12T06:42:39.977Z,17.80
2018-09-12T06:45:06.938Z,17.90
2018-09-12T06:47:33.951Z,18.10
2018-09-12T06:50:00.901Z,18.20
2018-09-12T06:52:27.864Z,18.50
2018-09-12T06:54:54.871Z,18.70
2018-09-12T06:57:21.843Z,18.90
2018-09-12T06:59:48.871Z,19.10
2018-09-12T07:02:15.849Z,19.20
2018-09-12T07:04:42.832Z,19.30
2018-09-12T07:07:09.799Z,18.80
2018-09-12T07:09:36.784Z,19.70
2018-09-12T07:12:03.738Z,19.90
2018-09-12T07:14:30.781Z,20.00
2018-09-12T07:16:57.774Z,20.20
2018-09-12T07:19:24.788Z,20.40
2018-09-12T07:21:51.914Z,20.60
2018-09-12T07:24:18.909Z,20.90
2018-09-12T07:26:45.882Z,20.90
2018-09-12T07:29:13.037Z,21.20
2018-09-12T07:31:40.152Z,21.20
2018-09-12T07:34:07.138Z,21.30
2018-09-12T07:36:34.132Z,21.50
2018-09-12T07:39:01.125Z,21.60
2018-09-12T07:41:28.109Z,22.00
2018-09-12T07:43:55.067Z,22.20
2018-09-12T07:46:22.048Z,22.30
2018-09-12T07:48:49.027Z,22.40
2018-09-12T07:51:15.980Z,22.80
2018-09-12T07:53:42.959Z,22.70
2018-09-12T07:56:10.005Z,22.90
2018-09-12T07:58:36.903Z,23.10
2018-09-12T08:01:03.994Z,23.10
2018-09-12T08:03:30.979Z,23.40
2018-09-12T08:05:57.950Z,23.40
2018-09-12T08:08:24.943Z,23.60
2018-09-12T08:10:51.930Z,23.60
2018-09-12T08:13:18.884Z,23.70
2018-09-12T08:15:45.866Z,24.30
2018-09-12T08:18:12.875Z,24.30
2018-09-12T08:20:39.861Z,24.30
2018-09-12T08:23:06.849Z,24.60
2018-09-12T08:25:33.816Z,24.80
2018-09-12T08:28:00.813Z,25.00
2018-09-12T08:30:28.251Z,25.10
2018-09-12T08:32:55.218Z,25.10
2018-09-12T08:35:22.184Z,25.30
2018-09-12T08:37:49.212Z,25.40
2018-09-12T08:40:16.193Z,25.50
2018-09-12T08:42:44.035Z,25.50
2018-09-12T08:45:11.031Z,25.70
2018-09-12T08:47:38.012Z,26.10
2018-09-12T08:50:06.107Z,26.30
2018-09-12T08:52:33.087Z,26.50
2018-09-12T08:55:00.065Z,26.60
2018-09-12T08:57:27.068Z,26.70
2018-09-12T08:59:54.220Z,26.70
2018-09-12T09:02:21.180Z,26.90
2018-09-12T09:04:48.133Z,27.00
2018-09-12T09:07:15.099Z,27.30
2018-09-12T09:09:42.088Z,27.60
2018-09-12T09:12:09.055Z,28.00
2018-09-12T09:14:36.037Z,28.30
2018-09-12T09:17:03.071Z,29.60
2018-09-12T09:19:30.652Z,32.60
2018-09-12T09:21:57.636Z,34.20
2018-09-12T09:24:24.606Z,34.60
2018-09-12T09:26:51.562Z,34.50
2018-09-12T09:29:18.561Z,34.00
2018-09-12T09:31:45.727Z,33.70
2018-09-12T09:34:12.710Z,32.80
2018-09-12T09:36:39.692Z,32.00
2018-09-12T09:39:08.619Z,31.10
2018-09-12T09:41:35.638Z,30.70
2018-09-12T09:44:02.630Z,30.70
2018-09-12T09:46:29.555Z,30.70
2018-09-12T09:48:56.558Z,30.60
2018-09-12T09:51:23.497Z,30.70
2018-09-12T09:53:50.465Z,30.90
2018-09-12T09:56:17.426Z,31.20
2018-09-12T09:58:44.414Z,31.30
2018-09-12T10:01:17.237Z,31.00
2018-09-12T10:03:50.154Z,31.30
2018-09-12T10:06:18.132Z,31.50
2018-09-12T10:08:51.030Z,31.80
2018-09-12T10:11:18.810Z,31.60
2018-09-12T10:13:45.779Z,31.90
2018-09-12T10:16:12.771Z,31.70
2018-09-12T10:18:39.730Z,32.50
2018-09-12T10:21:06.686Z,33.30
2018-09-12T10:23:33.666Z,33.20
2018-09-12T10:26:00.626Z,32.80
2018-09-12T10:28:27.586Z,33.20
2018-09-12T10:30:54.543Z,33.30
2018-09-12T10:33:22.040Z,33.30
2018-09-12T10:35:49.012Z,33.30
2018-09-12T10:38:16.003Z,33.50
2018-09-12T10:40:42.986Z,33.60
2018-09-12T10:43:10.018Z,33.60
2018-09-12T10:45:36.995Z,33.90
2018-09-12T10:48:03.986Z,33.60
2018-09-12T10:50:30.967Z,33.50
2018-09-12T10:52:57.918Z,33.50
2018-09-12T10:55:24.889Z,33.40
2018-09-12T10:57:51.844Z,33.60
2018-09-12T11:00:18.814Z,33.30
2018-09-12T11:02:45.782Z,33.20
2018-09-12T11:05:12.739Z,33.50
2018-09-12T11:07:39.712Z,34.10
2018-09-12T11:10:06.666Z,34.80
2018-09-12T11:12:33.654Z,34.70
2018-09-12T11:15:00.658Z,34.30
2018-09-12T11:17:27.606Z,34.70
2018-09-12T11:19:54.577Z,34.60
2018-09-12T11:22:21.634Z,34.40
2018-09-12T11:24:48.591Z,35.10
2018-09-12T11:27:15.554Z,35.10
2018-09-12T11:29:42.646Z,34.90
2018-09-12T11:32:09.610Z,34.80
2018-09-12T11:34:36.986Z,34.90
2018-09-12T11:37:03.962Z,34.60
2018-09-12T11:39:30.931Z,34.50
2018-09-12T11:41:57.887Z,34.40
2018-09-12T11:44:24.850Z,34.60
2018-09-12T11:46:51.818Z,34.80
2018-09-12T11:49:18.783Z,34.70
2018-09-12T11:51:48.281Z,34.20
2018-09-12T11:54:15.261Z,35.40
2018-09-12T11:56:42.382Z,35.40
2018-09-12T11:59:09.417Z,34.90
2018-09-12T12:01:36.401Z,34.40
2018-09-12T12:04:03.618Z,34.50
2018-09-12T12:06:30.625Z,34.50
2018-09-12T12:08:57.652Z,34.90
2018-09-12T12:11:24.648Z,34.70
2018-09-12T12:13:51.649Z,34.70
2018-09-12T12:16:18.626Z,34.70
2018-09-12T12:18:45.599Z,34.30
2018-09-12T12:21:12.702Z,34.90
2018-09-12T12:23:39.667Z,34.90
2018-09-12T12:26:06.717Z,34.40
2018-09-12T12:28:33.674Z,34.60
2018-09-12T12:31:00.626Z,34.40
2018-09-12T12:33:27.592Z,34.10
2018-09-12T12:35:54.983Z,34.20
2018-09-12T12:38:21.941Z,34.00
2018-09-12T12:40:48.894Z,33.50
2018-09-12T12:43:15.910Z,33.50
2018-09-12T12:45:43.003Z,33.60
2018-09-12T12:48:10.174Z,33.70
2018-09-12T12:50:37.142Z,33.70
2018-09-12T12:53:04.263Z,33.70
2018-09-12T12:55:31.231Z,33.90
2018-09-12T12:57:58.215Z,33.80
2018-09-12T13:00:25.166Z,33.70
2018-09-12T13:02:52.147Z,33.60
2018-09-12T13:05:19.125Z,33.50
2018-09-12T13:07:46.091Z,33.40
2018-09-12T13:10:13.039Z,33.20
2018-09-12T13:12:40.013Z,33.40
2018-09-12T13:15:06.994Z,34.20
2018-09-12T13:17:33.963Z,33.80
2018-09-12T13:20:00.920Z,33.50
2018-09-12T13:22:27.947Z,33.70
2018-09-12T13:24:54.913Z,33.60
2018-09-12T13:27:21.959Z,33.80
2018-09-12T13:29:48.864Z,33.60
2018-09-12T13:32:15.834Z,33.60
2018-09-12T13:34:42.821Z,33.70
2018-09-12T13:37:10.265Z,33.50
2018-09-12T13:39:37.223Z,33.40
2018-09-12T13:42:04.172Z,33.30
2018-09-12T13:44:31.167Z,32.90
2018-09-12T13:46:58.100Z,32.80
2018-09-12T13:49:25.156Z,32.70
2018-09-12T13:51:52.030Z,32.50
2018-09-12T13:54:18.994Z,32.40
2018-09-12T13:56:46.083Z,32.60
2018-09-12T13:59:12.967Z,31.20
2018-09-12T14:01:39.918Z,32.40
2018-09-12T14:04:06.886Z,32.50
2018-09-12T14:06:33.886Z,32.40
2018-09-12T14:09:00.901Z,32.40
2018-09-12T14:11:27.855Z,32.40
2018-09-12T14:13:54.810Z,32.30
2018-09-12T14:16:23.006Z,32.10
2018-09-12T14:18:49.973Z,31.70
2018-09-12T14:23:07.892Z,31.40
2018-09-12T14:25:34.850Z,31.80
2018-09-12T14:28:01.827Z,31.60
2018-09-12T14:30:28.825Z,31.60
2018-09-12T14:32:55.814Z,31.70
2018-09-12T14:35:22.788Z,31.90
2018-09-12T14:37:50.230Z,31.80
2018-09-12T14:40:17.231Z,31.70
2018-09-12T14:42:44.178Z,31.30
2018-09-12T14:45:11.283Z,31.30
2018-09-12T14:47:38.147Z,31.20
2018-09-12T14:50:05.090Z,31.30
2018-09-12T14:52:33.482Z,31.40
2018-09-12T14:55:01.814Z,31.30
2018-09-12T14:57:29.712Z,31.40
2018-09-12T14:59:56.957Z,31.30
2018-09-12T15:02:24.444Z,31.20
2018-09-12T15:04:51.569Z,31.30
2018-09-12T15:07:18.499Z,31.30
2018-09-12T15:09:45.559Z,31.30
2018-09-12T15:12:12.566Z,31.20
2018-09-12T15:14:39.560Z,31.20
2018-09-12T15:17:06.909Z,31.20
2018-09-12T15:19:33.962Z,31.10
2018-09-12T15:22:01.080Z,31.00
2018-09-12T15:24:30.564Z,30.80
2018-09-12T15:26:57.684Z,30.80
2018-09-12T15:29:25.163Z,30.70
2018-09-12T15:31:52.181Z,30.80
2018-09-12T15:34:19.144Z,30.80
2018-09-12T15:36:46.222Z,30.90
2018-09-12T15:39:14.565Z,30.80
2018-09-12T15:41:41.604Z,30.70
2018-09-12T15:44:08.556Z,30.70
2018-09-12T15:46:36.433Z,30.60
2018-09-12T15:49:03.567Z,30.50
2018-09-12T15:51:30.561Z,30.40
2018-09-12T15:53:57.566Z,30.30
2018-09-12T15:56:24.564Z,30.30
2018-09-12T15:58:51.567Z,30.20
2018-09-12T16:01:18.663Z,30.20
2018-09-12T16:03:45.679Z,30.10
2018-09-12T16:06:12.632Z,30.00
2018-09-12T16:08:39.811Z,29.90
2018-09-12T16:11:08.255Z,29.90
2018-09-12T16:13:35.297Z,29.80
2018-09-12T16:16:03.576Z,29.80
2018-09-12T16:18:35.701Z,29.80
2018-09-12T16:21:03.167Z,29.70
2018-09-12T16:23:43.461Z,28.80
2018-09-12T16:26:15.427Z,29.70
2018-09-12T16:28:45.056Z,29.70
2018-09-12T16:31:12.947Z,29.60
2018-09-12T16:33:39.889Z,29.40
2018-09-12T16:36:06.874Z,29.30
2018-09-12T16:38:33.838Z,29.20
2018-09-12T16:41:01.373Z,29.10
2018-09-12T16:43:28.379Z,28.90
2018-09-12T16:45:55.350Z,28.90
2018-09-12T16:48:22.338Z,28.80
2018-09-12T16:50:49.345Z,28.80
2018-09-12T16:53:16.639Z,28.70
2018-09-12T16:55:43.624Z,28.70
2018-09-12T16:58:10.602Z,28.60
2018-09-12T17:00:37.652Z,28.60
2018-09-12T17:03:04.590Z,28.60
2018-09-12T17:05:31.627Z,28.40
2018-09-12T17:07:58.587Z,28.50
2018-09-12T17:10:25.543Z,28.40
2018-09-12T17:12:52.522Z,28.30
2018-09-12T17:15:19.471Z,28.20
2018-09-12T17:17:46.426Z,28.20
2018-09-12T17:20:13.448Z,28.00
2018-09-12T17:22:40.378Z,28.00
2018-09-12T17:25:07.379Z,27.80
2018-09-12T17:27:34.366Z,27.70
2018-09-12T17:30:01.338Z,27.60
2018-09-12T17:32:28.356Z,27.60
2018-09-12T17:34:55.375Z,27.40
2018-09-12T17:37:22.358Z,27.40
2018-09-12T17:39:49.325Z,27.30
2018-09-12T17:42:16.847Z,27.20
2018-09-12T17:44:43.851Z,27.20
2018-09-12T17:47:10.802Z,27.10
2018-09-12T17:49:37.786Z,27.10
2018-09-12T17:52:04.912Z,27.10
2018-09-12T17:54:31.901Z,27.00
2018-09-12T17:56:58.891Z,26.90
2018-09-12T17:59:25.842Z,26.80
2018-09-12T18:01:52.805Z,26.80
2018-09-12T18:04:19.788Z,26.70
2018-09-12T18:06:46.848Z,26.60
2018-09-12T18:09:13.830Z,26.70
2018-09-12T18:11:40.824Z,26.60
2018-09-12T18:14:07.799Z,26.60
2018-09-12T18:16:35.068Z,26.40
2018-09-12T18:19:02.038Z,26.20
2018-09-12T18:21:29.000Z,26.20
2018-09-12T18:23:55.953Z,26.10
2018-09-12T18:26:22.954Z,26.10
2018-09-12T18:28:49.919Z,25.70
2018-09-12T18:31:16.889Z,25.70
2018-09-12T18:33:43.893Z,25.70
2018-09-12T18:36:10.874Z,25.50
2018-09-12T18:38:37.823Z,25.50
2018-09-12T18:41:04.843Z,25.50
2018-09-12T18:43:32.202Z,25.40
2018-09-12T18:45:59.183Z,25.30
2018-09-12T18:48:26.190Z,25.30
2018-09-12T18:50:53.142Z,25.40
2018-09-12T18:53:20.109Z,25.50
2018-09-12T18:55:47.087Z,25.40
2018-09-12T18:58:14.062Z,25.40
2018-09-12T19:00:41.707Z,25.40
2018-09-12T19:03:08.712Z,25.20
2018-09-12T19:05:35.706Z,24.90
2018-09-12T19:08:02.660Z,24.60
2018-09-12T19:10:30.007Z,24.70
2018-09-12T19:12:57.117Z,24.60
2018-09-12T19:15:24.130Z,24.60
2018-09-12T19:17:51.102Z,24.70
2018-09-12T19:20:18.083Z,24.70
2018-09-12T19:22:45.039Z,24.60
2018-09-12T19:25:12.032Z,24.50
2018-09-12T19:27:39.023Z,24.40
2018-09-12T19:30:05.972Z,24.30
2018-09-12T19:32:32.943Z,24.30
2018-09-12T19:34:59.907Z,24.30
2018-09-12T19:37:26.878Z,24.20
2018-09-12T19:39:53.858Z,24.00
2018-09-12T19:42:20.957Z,23.10
2018-09-12T19:44:48.464Z,23.60
2018-09-12T19:47:15.461Z,23.50
2018-09-12T19:49:42.418Z,23.30
2018-09-12T19:52:09.362Z,23.30
2018-09-12T19:54:36.351Z,23.30
2018-09-12T19:57:04.226Z,23.20
2018-09-12T19:59:31.328Z,23.20
2018-09-12T20:01:59.083Z,23.10
2018-09-12T20:04:26.153Z,23.10
2018-09-12T20:06:53.220Z,23.20
2018-09-12T20:09:20.200Z,23.10
2018-09-12T20:11:49.106Z,22.20
2018-09-12T20:14:16.110Z,23.20
2018-09-12T20:16:43.075Z,23.10
2018-09-12T20:19:10.219Z,23.10
2018-09-12T20:21:37.207Z,23.10
2018-09-12T20:24:04.529Z,23.00
2018-09-12T20:26:31.409Z,22.80
2018-09-12T20:28:58.416Z,22.80
2018-09-12T20:31:25.412Z,22.90
2018-09-12T20:33:52.463Z,23.10
2018-09-12T20:36:19.450Z,23.30
2018-09-12T20:38:46.426Z,23.50
2018-09-12T20:41:13.377Z,23.50
2018-09-12T20:43:40.366Z,23.30
2018-09-12T20:46:07.750Z,23.10
2018-09-12T20:48:34.726Z,23.20
2018-09-12T20:51:01.700Z,23.60
2018-09-12T20:53:28.678Z,24.00
2018-09-12T20:55:55.679Z,24.10
2018-09-12T20:58:22.650Z,23.90
2018-09-12T21:00:49.646Z,23.80
2018-09-12T21:03:16.614Z,23.50
2018-09-12T21:05:43.578Z,23.40
2018-09-12T21:08:11.014Z,23.30
2018-09-12T21:10:37.976Z,23.00
2018-09-12T21:13:04.950Z,22.80
2018-09-12T21:15:31.970Z,22.90
2018-09-12T21:17:58.920Z,22.80
2018-09-12T21:20:25.883Z,22.40
2018-09-12T21:22:52.885Z,22.30
2018-09-12T21:25:19.830Z,22.20
2018-09-12T21:27:46.790Z,22.20
2018-09-12T21:30:13.914Z,22.00
2018-09-12T21:32:40.892Z,21.80
2018-09-12T21:35:07.934Z,21.70
2018-09-12T21:37:34.982Z,21.80
2018-09-12T21:40:01.983Z,21.40
2018-09-12T21:42:29.063Z,21.30
2018-09-12T21:44:56.063Z,21.30
2018-09-12T21:47:23.642Z,21.40
2018-09-12T21:49:50.604Z,21.50
2018-09-12T21:52:17.602Z,21.40
2018-09-12T21:54:44.577Z,21.40
2018-09-12T21:57:11.562Z,21.50
2018-09-12T21:59:38.594Z,21.40
2018-09-12T22:02:05.857Z,21.40
2018-09-12T22:04:32.900Z,21.20
2018-09-12T22:06:59.987Z,21.00
2018-09-12T22:09:27.661Z,21.10
2018-09-12T22:11:56.269Z,21.10
2018-09-12T22:14:23.338Z,21.20
2018-09-12T22:16:50.844Z,21.20
2018-09-12T22:19:17.861Z,20.90
2018-09-12T22:21:46.524Z,20.90
2018-09-12T22:24:13.622Z,20.90
2018-09-12T22:26:41.117Z,20.70
2018-09-12T22:29:09.110Z,20.50
2018-09-12T22:31:36.855Z,20.40
2018-09-12T22:34:03.907Z,20.40
2018-09-12T22:36:31.124Z,20.20
2018-09-12T22:38:58.683Z,20.30
2018-09-12T22:41:25.661Z,20.20
2018-09-12T22:43:52.662Z,20.20
2018-09-12T22:46:19.650Z,20.10
2018-09-12T22:48:47.126Z,20.10
2018-09-12T22:51:14.427Z,21.10
2018-09-12T22:53:41.365Z,20.10
2018-09-12T22:56:08.319Z,20.20
2018-09-12T22:58:35.302Z,20.30
2018-09-12T23:01:02.297Z,20.40
2018-09-12T23:03:29.257Z,20.40
2018-09-12T23:05:56.288Z,20.40
2018-09-12T23:08:23.245Z,20.20
2018-09-12T23:10:50.218Z,20.30
2018-09-12T23:13:17.233Z,20.20
2018-09-12T23:15:44.213Z,20.30
2018-09-12T23:18:11.314Z,20.20
2018-09-12T23:20:38.298Z,20.20
2018-09-12T23:23:05.755Z,20.10
2018-09-12T23:25:32.689Z,20.00
2018-09-12T23:27:59.681Z,20.00
2018-09-12T23:30:26.646Z,19.90
2018-09-12T23:32:53.593Z,19.70
2018-09-12T23:35:20.594Z,19.60
2018-09-12T23:37:47.694Z,19.50
2018-09-12T23:40:14.990Z,19.50
2018-09-12T23:42:42.018Z,19.50
2018-09-12T23:45:09.002Z,19.50
2018-09-12T23:47:35.992Z,19.50
2018-09-12T23:50:03.470Z,19.30
2018-09-12T23:52:30.425Z,19.30
2018-09-12T23:54:57.406Z,19.20
2018-09-12T23:57:24.415Z,19.10
2018-09-12T23:59:51.375Z,19.20
